createdAt,value
2018-05-11T00:01:17.529Z,101878.23
2018-05-11T00:03:45.108Z,101878.56
2018-05-11T00:06:13.215Z,101877.64
2018-05-11T00:08:41.160Z,101885.97
2018-05-11T00:11:09.488Z,101890.75
2018-05-11T00:13:37.797Z,101890.63
2018-05-11T00:16:05.968Z,101893.80
2018-05-11T00:18:33.589Z,101901.17
2018-05-11T00:21:01.158Z,101896.69
2018-05-11T00:23:29.007Z,101900.11
2018-05-11T00:25:56.588Z,101895.20
2018-05-11T00:28:24.391Z,101894.44
2018-05-11T00:30:52.112Z,101895.02
2018-05-11T00:33:19.700Z,101897.06
2018-05-11T00:35:47.296Z,101896.58
2018-05-11T00:38:14.993Z,101897.28
2018-05-11T00:40:42.700Z,101898.19
2018-05-11T00:43:10.277Z,101895.25
2018-05-11T00:45:37.972Z,101898.42
2018-05-11T00:48:05.880Z,101900.75
2018-05-11T00:50:33.679Z,101895.25
2018-05-11T00:53:01.299Z,101892.94
2018-05-11T00:55:40.592Z,101902.23
2018-05-11T00:58:08.389Z,101906.17
2018-05-11T01:00:35.947Z,101903.06
2018-05-11T01:03:03.539Z,101907.72
2018-05-11T01:05:31.100Z,101904.73
2018-05-11T01:07:58.702Z,101902.88
2018-05-11T01:10:26.346Z,101909.77
2018-05-11T01:12:54.136Z,101911.16
2018-05-11T01:15:21.705Z,101909.25
2018-05-11T01:17:49.285Z,101915.91
2018-05-11T01:20:17.637Z,101914.56
2018-05-11T01:22:45.210Z,101914.41
2018-05-11T01:25:12.815Z,101917.27
2018-05-11T01:27:40.457Z,101918.77
2018-05-11T01:30:08.052Z,101917.56
2018-05-11T01:32:35.611Z,101915.81
2018-05-11T01:35:03.609Z,101917.74
2018-05-11T01:37:31.177Z,101912.75
2018-05-11T01:39:58.743Z,101913.71
2018-05-11T01:42:26.344Z,101914.44
2018-05-11T01:44:54.211Z,101912.16
2018-05-11T01:47:21.767Z,101911.34
2018-05-11T01:49:49.427Z,101917.61
2018-05-11T01:52:17.167Z,101909.47
2018-05-11T01:54:45.190Z,101907.72
2018-05-11T01:57:12.834Z,101911.52
2018-05-11T01:59:40.582Z,101915.88
2018-05-11T02:02:08.161Z,101914.25
2018-05-11T02:04:35.733Z,101906.54
2018-05-11T02:07:03.342Z,101920.12
2018-05-11T02:09:30.946Z,101919.61
2018-05-11T02:11:58.525Z,101919.21
2018-05-11T02:14:26.190Z,101921.52
2018-05-11T02:16:53.825Z,101918.59
2018-05-11T02:19:21.416Z,101921.31
2018-05-11T02:21:49.365Z,101919.14
2018-05-11T02:24:16.926Z,101913.06
2018-05-11T02:26:44.568Z,101922.16
2018-05-11T02:29:12.322Z,101917.86
2018-05-11T02:31:39.991Z,101920.97
2018-05-11T02:34:07.554Z,101929.53
2018-05-11T02:36:35.547Z,101919.67
2018-05-11T02:39:03.305Z,101916.00
2018-05-11T02:41:31.019Z,101917.51
2018-05-11T02:43:58.621Z,101921.45
2018-05-11T02:46:26.457Z,101920.94
2018-05-11T02:48:54.300Z,101923.11
2018-05-11T02:51:21.897Z,101923.95
2018-05-11T02:53:49.473Z,101924.90
2018-05-11T02:56:17.201Z,101931.55
2018-05-11T02:58:44.788Z,101932.24
2018-05-11T03:01:12.778Z,101930.09
2018-05-11T03:03:40.369Z,101937.41
2018-05-11T03:06:07.979Z,101934.99
2018-05-11T03:08:36.000Z,101935.00
2018-05-11T03:11:03.575Z,101936.92
2018-05-11T03:13:31.155Z,101940.06
2018-05-11T03:15:58.750Z,101939.52
2018-05-11T03:18:26.314Z,101938.86
2018-05-11T03:20:54.307Z,101942.24
2018-05-11T03:23:21.919Z,101947.67
2018-05-11T03:25:49.561Z,101948.78
2018-05-11T03:28:17.154Z,101947.58
2018-05-11T03:30:44.879Z,101954.49
2018-05-11T03:33:12.639Z,101948.39
2018-05-11T03:35:40.280Z,101951.66
2018-05-11T03:38:07.851Z,101953.44
2018-05-11T03:40:35.444Z,101956.70
2018-05-11T03:43:03.137Z,101954.10
2018-05-11T03:45:30.730Z,101950.05
2018-05-11T03:47:58.286Z,101957.62
2018-05-11T03:50:25.970Z,101968.73
2018-05-11T03:52:53.547Z,101969.39
2018-05-11T03:55:21.128Z,101973.06
2018-05-11T03:57:48.812Z,101976.44
2018-05-11T04:00:16.636Z,101980.11
2018-05-11T04:02:56.074Z,101984.84
2018-05-11T04:08:48.895Z,101976.72
2018-05-11T04:11:16.528Z,101980.78
2018-05-11T04:13:44.133Z,101986.47
2018-05-11T04:16:11.848Z,101984.97
2018-05-11T04:18:39.434Z,101986.33
2018-05-11T04:21:07.004Z,101986.19
2018-05-11T04:23:35.000Z,101984.31
2018-05-11T04:26:02.888Z,101987.41
2018-05-11T04:28:30.445Z,101992.82
2018-05-11T04:30:58.109Z,101992.13
2018-05-11T04:33:25.732Z,101989.45
2018-05-11T04:35:53.446Z,101997.19
2018-05-11T04:38:21.005Z,101995.94
2018-05-11T04:40:48.576Z,102005.27
2018-05-11T04:43:16.196Z,101998.77
2018-05-11T04:45:43.850Z,101993.07
2018-05-11T04:48:11.864Z,102001.19
2018-05-11T04:50:39.438Z,102006.59
2018-05-11T04:53:07.040Z,102007.11
2018-05-11T04:55:34.639Z,102009.39
2018-05-11T04:58:02.213Z,102015.77
2018-05-11T05:00:29.977Z,102018.98
2018-05-11T05:02:57.554Z,102014.77
2018-05-11T05:05:25.134Z,102011.62
2018-05-11T05:07:52.745Z,102009.70
2018-05-11T05:10:20.311Z,102016.75
2018-05-11T05:12:48.269Z,102017.53
2018-05-11T05:15:15.901Z,102018.06
2018-05-11T05:17:43.500Z,102023.19
2018-05-11T05:20:11.088Z,102015.69
2018-05-11T05:22:38.695Z,102013.61
2018-05-11T05:25:06.297Z,102019.00
2018-05-11T05:27:34.150Z,102014.23
2018-05-11T05:30:01.953Z,102019.36
2018-05-11T05:32:29.539Z,102020.56
2018-05-11T05:34:57.341Z,102026.11
2018-05-11T05:37:25.049Z,102023.39
2018-05-11T05:39:52.895Z,102025.12
2018-05-11T05:42:20.477Z,102027.02
2018-05-11T05:44:48.496Z,102025.52
2018-05-11T05:47:16.198Z,102028.20
2018-05-11T05:49:43.787Z,102027.08
2018-05-11T05:52:11.463Z,102020.81
2018-05-11T05:54:39.045Z,102024.03
2018-05-11T05:57:06.637Z,102021.84
2018-05-11T05:59:34.288Z,102024.38
2018-05-11T06:02:01.861Z,102022.94
2018-05-11T06:04:29.664Z,102030.37
2018-05-11T06:06:57.295Z,102022.33
2018-05-11T06:09:24.940Z,102019.38
2018-05-11T06:11:52.619Z,102024.24
2018-05-11T06:14:20.304Z,102030.28
2018-05-11T06:16:47.990Z,102028.86
2018-05-11T06:19:15.598Z,102029.47
2018-05-11T06:21:43.378Z,102032.14
2018-05-11T06:24:10.951Z,102029.52
2018-05-11T06:26:43.858Z,102034.72
2018-05-11T06:29:11.852Z,102024.13
2018-05-11T06:31:39.458Z,102025.83
2018-05-11T06:34:07.399Z,102029.33
2018-05-11T06:36:34.964Z,102030.08
2018-05-11T06:39:02.566Z,102023.88
2018-05-11T06:41:31.305Z,102026.94
2018-05-11T06:43:58.883Z,102025.23
2018-05-11T06:46:26.487Z,102026.89
2018-05-11T06:48:54.061Z,102022.26
2018-05-11T06:51:21.672Z,102026.67
2018-05-11T06:53:49.287Z,102028.86
2018-05-11T06:56:16.865Z,102029.06
2018-05-11T06:58:44.439Z,102021.81
2018-05-11T07:01:12.044Z,102024.92
2018-05-11T07:03:39.600Z,102020.83
2018-05-11T07:06:07.851Z,102027.63
2018-05-11T07:08:35.412Z,102031.30
2018-05-11T07:11:02.992Z,102029.58
2018-05-11T07:13:30.594Z,102024.86
2018-05-11T07:15:58.164Z,102032.78
2018-05-11T07:18:26.239Z,102019.33
2018-05-11T07:20:53.758Z,102012.38
2018-05-11T07:23:21.312Z,102023.05
2018-05-11T07:25:49.434Z,102027.18
2018-05-11T07:28:16.935Z,102028.62
2018-05-11T07:30:44.483Z,102027.90
2018-05-11T07:33:12.101Z,102027.41
2018-05-11T07:35:39.726Z,102028.66
2018-05-11T07:38:07.296Z,102023.02
2018-05-11T07:40:34.942Z,102022.39
2018-05-11T07:43:02.509Z,102016.16
2018-05-11T07:45:30.104Z,102012.09
2018-05-11T07:47:58.014Z,102013.78
2018-05-11T07:50:26.906Z,102017.44
2018-05-11T07:52:54.693Z,102014.05
2018-05-11T07:55:22.410Z,102010.39
2018-05-11T07:57:50.000Z,102016.53
2018-05-11T08:00:17.580Z,102024.73
2018-05-11T08:02:45.469Z,102025.81
2018-05-11T08:05:13.058Z,102020.25
2018-05-11T08:07:40.742Z,102019.63
2018-05-11T08:10:08.990Z,102013.39
2018-05-11T08:12:36.607Z,102012.64
2018-05-11T08:15:04.167Z,102016.69
2018-05-11T08:17:31.889Z,102017.90
2018-05-11T08:19:59.474Z,102012.11
2018-05-11T08:22:27.025Z,102008.14
2018-05-11T08:24:54.615Z,102011.60
2018-05-11T08:27:22.316Z,102010.56
2018-05-11T08:29:50.015Z,102006.34
2018-05-11T08:32:17.808Z,102009.52
2018-05-11T08:34:45.375Z,102008.62
2018-05-11T08:37:13.415Z,102010.78
2018-05-11T08:39:41.431Z,101994.45
2018-05-11T08:42:08.995Z,102000.41
2018-05-11T08:44:36.583Z,101999.86
2018-05-11T08:47:04.180Z,101999.20
2018-05-11T08:49:31.806Z,101997.46
2018-05-11T08:51:59.516Z,102004.82
2018-05-11T08:54:27.059Z,101997.03
2018-05-11T08:56:54.919Z,102002.08
2018-05-11T08:59:22.637Z,102003.02
2018-05-11T09:01:50.348Z,102000.51
2018-05-11T09:04:17.962Z,101989.45
2018-05-11T09:06:45.514Z,101992.02
2018-05-11T09:09:13.076Z,101993.02
2018-05-11T09:11:40.905Z,101984.12
2018-05-11T09:14:08.485Z,101989.41
2018-05-11T09:16:36.120Z,101991.88
2018-05-11T09:19:03.670Z,101987.97
2018-05-11T09:21:31.333Z,101983.38
2018-05-11T09:23:58.914Z,101993.45
2018-05-11T09:26:26.509Z,101988.94
2018-05-11T09:28:54.340Z,101997.55
2018-05-11T09:31:21.927Z,101987.05
2018-05-11T09:33:49.502Z,101977.31
2018-05-11T09:36:17.070Z,101978.14
2018-05-11T09:38:44.815Z,101975.77
2018-05-11T09:41:12.376Z,101968.09
2018-05-11T09:43:40.013Z,101970.61
2018-05-11T09:46:07.574Z,101975.27
2018-05-11T09:48:35.231Z,101968.13
2018-05-11T09:51:02.812Z,101966.55
2018-05-11T09:53:30.377Z,101969.75
2018-05-11T09:55:58.011Z,101964.01
2018-05-11T09:58:25.563Z,101955.23
2018-05-11T10:00:53.205Z,101953.97
2018-05-11T10:03:20.990Z,101965.08
2018-05-11T10:05:48.583Z,101966.34
2018-05-11T10:08:16.224Z,101965.94
2018-05-11T10:10:43.817Z,101974.25
2018-05-11T10:13:11.378Z,101967.72
2018-05-11T10:15:39.343Z,101957.56
2018-05-11T10:20:51.305Z,101957.36
2018-05-11T10:23:18.837Z,101959.37
2018-05-11T10:25:46.706Z,101950.35
2018-05-11T10:28:14.586Z,101953.25
2018-05-11T10:30:42.209Z,101946.95
2018-05-11T10:33:09.774Z,101939.17
2018-05-11T10:35:37.419Z,101934.20
2018-05-11T10:38:05.021Z,101931.66
2018-05-11T10:40:32.707Z,101936.42
2018-05-11T10:43:00.280Z,101935.41
2018-05-11T10:45:27.834Z,101940.00
2018-05-11T10:47:55.429Z,101936.45
2018-05-11T10:50:23.074Z,101928.84
2018-05-11T10:52:50.974Z,101926.67
2018-05-11T10:55:18.536Z,101928.58
2018-05-11T10:57:46.187Z,101924.38
2018-05-11T11:00:13.780Z,101926.38
2018-05-11T11:02:41.371Z,101927.61
2018-05-11T11:05:09.178Z,101929.75
2018-05-11T11:07:36.801Z,101933.04
2018-05-11T11:10:04.352Z,101935.31
2018-05-11T11:12:31.975Z,101931.70
2018-05-11T11:14:59.565Z,101932.17
2018-05-11T11:17:27.313Z,101929.28
2018-05-11T11:19:55.221Z,101931.45
2018-05-11T11:22:22.843Z,101939.08
2018-05-11T11:24:50.429Z,101931.34
2018-05-11T11:27:17.989Z,101927.53
2018-05-11T11:29:45.929Z,101926.13
2018-05-11T11:32:13.739Z,101926.59
2018-05-11T11:34:41.361Z,101923.92
2018-05-11T11:37:09.190Z,101923.78
2018-05-11T11:39:36.813Z,101922.64
2018-05-11T11:42:04.381Z,101915.08
2018-05-11T11:44:32.301Z,101908.39
2018-05-11T11:46:59.931Z,101909.97
2018-05-11T11:49:27.507Z,101917.36
2018-05-11T11:51:55.178Z,101913.00
2018-05-11T11:54:22.801Z,101910.69
2018-05-11T11:56:50.430Z,101906.30
2018-05-11T11:59:18.268Z,101905.45
2018-05-11T12:01:45.872Z,101902.91
2018-05-11T12:04:13.536Z,101903.12
2018-05-11T12:06:41.164Z,101901.09
2018-05-11T12:09:08.733Z,101897.41
2018-05-11T12:11:36.423Z,101888.64
2018-05-11T12:14:04.048Z,101883.78
2018-05-11T12:16:31.601Z,101882.55
2018-05-11T12:18:59.217Z,101888.88
2018-05-11T12:21:26.797Z,101891.48
2018-05-11T12:23:54.381Z,101886.55
2018-05-11T12:26:22.053Z,101876.38
2018-05-11T12:28:49.552Z,101875.03
2018-05-11T12:31:17.297Z,101872.64
2018-05-11T12:33:44.853Z,101870.48
2018-05-11T12:36:12.404Z,101868.28
2018-05-11T12:38:39.994Z,101872.26
2018-05-11T12:41:07.598Z,101871.00
2018-05-11T12:43:35.428Z,101862.95
2018-05-11T12:46:03.015Z,101865.62
2018-05-11T12:48:31.047Z,101858.08
2018-05-11T12:50:58.674Z,101856.61
2018-05-11T12:53:26.269Z,101856.16
2018-05-11T12:55:54.685Z,101851.70
2018-05-11T12:58:22.226Z,101853.42
2018-05-11T13:00:50.095Z,101854.69
2018-05-11T13:03:17.705Z,101846.78
2018-05-11T13:05:45.328Z,101847.75
2018-05-11T13:08:12.930Z,101840.34
2018-05-11T13:10:40.927Z,101837.95
2018-05-11T13:13:08.725Z,101829.77
2018-05-11T13:15:36.619Z,101836.20
2018-05-11T13:18:04.236Z,101830.20
2018-05-11T13:20:31.860Z,101828.55
2018-05-11T13:22:59.403Z,101829.63
2018-05-11T13:25:27.058Z,101822.47
2018-05-11T13:27:54.643Z,101821.48
2018-05-11T13:30:22.282Z,101813.07
2018-05-11T13:32:49.885Z,101808.21
2018-05-11T13:35:17.695Z,101811.02
2018-05-11T13:37:45.279Z,101807.63
2018-05-11T13:40:12.841Z,101809.94
2018-05-11T13:42:46.998Z,101806.75
2018-05-11T13:45:14.792Z,101805.55
2018-05-11T13:47:42.354Z,101800.38
2018-05-11T13:50:10.176Z,101799.58
2018-05-11T13:52:37.991Z,101810.11
2018-05-11T13:55:05.880Z,101792.96
2018-05-11T13:57:33.528Z,101798.19
2018-05-11T14:00:01.121Z,101794.61
2018-05-11T14:02:28.766Z,101786.39
2018-05-11T14:04:56.768Z,101787.42
2018-05-11T14:07:24.324Z,101791.03
2018-05-11T14:09:51.885Z,101787.15
2018-05-11T14:12:19.478Z,101782.75
2018-05-11T14:14:47.214Z,101783.57
2018-05-11T14:17:14.882Z,101781.97
2018-05-11T14:19:42.439Z,101774.84
2018-05-11T14:22:10.070Z,101780.59
2018-05-11T14:24:37.759Z,101783.08
2018-05-11T14:27:05.448Z,101783.97
2018-05-11T14:29:33.058Z,101773.16
2018-05-11T14:32:00.719Z,101775.06
2018-05-11T14:34:28.237Z,101775.86
2018-05-11T14:36:55.866Z,101766.22
2018-05-11T14:39:23.663Z,101766.30
2018-05-11T14:41:51.390Z,101768.81
2018-05-11T14:44:18.972Z,101757.88
2018-05-11T14:46:46.576Z,101755.92
2018-05-11T14:49:14.180Z,101757.56
2018-05-11T14:51:41.843Z,101752.42
2018-05-11T14:54:09.783Z,101745.31
2018-05-11T14:56:37.556Z,101750.72
2018-05-11T14:59:05.201Z,101740.39
2018-05-11T15:01:32.765Z,101741.40
2018-05-11T15:04:00.438Z,101733.44
2018-05-11T15:06:28.346Z,101731.67
2018-05-11T15:08:56.207Z,101726.70
2018-05-11T15:11:23.768Z,101728.87
2018-05-11T15:13:51.638Z,101725.27
2018-05-11T15:16:19.280Z,101725.98
2018-05-11T15:18:46.898Z,101724.98
2018-05-11T15:21:14.759Z,101719.00
2018-05-11T15:23:42.320Z,101722.86
2018-05-11T15:26:09.887Z,101712.80
2018-05-11T15:28:37.481Z,101711.78
2018-05-11T15:31:05.142Z,101722.45
2018-05-11T15:33:32.787Z,101721.02
2018-05-11T15:36:00.431Z,101714.71
2018-05-11T15:38:28.072Z,101714.73
2018-05-11T15:40:55.731Z,101713.68
2018-05-11T15:43:23.527Z,101702.75
2018-05-11T15:45:51.591Z,101704.00
2018-05-11T15:48:19.159Z,101701.80
2018-05-11T15:50:46.748Z,101701.23
2018-05-11T15:53:14.574Z,101696.25
2018-05-11T15:55:42.131Z,101695.94
2018-05-11T15:58:09.722Z,101698.06
2018-05-11T16:00:37.284Z,101691.30
2018-05-11T16:03:04.898Z,101693.21
2018-05-11T16:05:32.559Z,101686.77
2018-05-11T16:08:00.193Z,101686.74
2018-05-11T16:10:28.011Z,101690.50
2018-05-11T16:12:56.216Z,101692.18
2018-05-11T16:15:23.737Z,101685.11
2018-05-11T16:17:51.381Z,101688.46
2018-05-11T16:20:18.990Z,101681.95
2018-05-11T16:22:46.637Z,101675.82
2018-05-11T16:25:14.499Z,101672.92
2018-05-11T16:27:42.064Z,101672.89
2018-05-11T16:30:09.626Z,101674.00
2018-05-11T16:32:37.222Z,101671.88
2018-05-11T16:35:04.805Z,101672.63
2018-05-11T16:37:32.435Z,101663.41
2018-05-11T16:40:00.007Z,101667.72
2018-05-11T16:42:27.578Z,101668.14
2018-05-11T16:44:55.162Z,101665.52
2018-05-11T16:47:22.716Z,101657.81
2018-05-11T16:49:50.956Z,101650.37
2018-05-11T16:52:18.615Z,101653.02
2018-05-11T16:54:46.240Z,101649.27
2018-05-11T16:57:13.886Z,101647.02
2018-05-11T16:59:41.447Z,101656.77
2018-05-11T17:02:09.086Z,101653.20
2018-05-11T17:04:36.786Z,101649.39
2018-05-11T17:07:04.466Z,101654.22
2018-05-11T17:09:32.266Z,101652.16
2018-05-11T17:11:59.850Z,101645.66
2018-05-11T17:14:27.419Z,101643.00
2018-05-11T17:16:55.522Z,101642.86
2018-05-11T17:19:23.090Z,101640.27
2018-05-11T17:21:50.697Z,101639.03
2018-05-11T17:24:18.268Z,101641.30
2018-05-11T17:26:45.933Z,101646.63
2018-05-11T17:29:13.543Z,101648.51
2018-05-11T17:31:41.274Z,101642.45
2018-05-11T17:34:09.071Z,101639.60
2018-05-11T17:36:36.743Z,101638.31
2018-05-11T17:39:04.401Z,101635.87
2018-05-11T17:41:32.041Z,101635.59
2018-05-11T17:43:59.915Z,101633.66
2018-05-11T17:46:27.694Z,101633.28
2018-05-11T17:48:55.242Z,101629.73
2018-05-11T17:51:22.818Z,101633.33
2018-05-11T17:53:50.432Z,101628.39
2018-05-11T17:56:18.014Z,101629.16
2018-05-11T17:58:45.639Z,101634.23
2018-05-11T18:01:13.253Z,101635.22
2018-05-11T18:03:40.879Z,101629.74
2018-05-11T18:06:08.559Z,101634.03
2018-05-11T18:08:36.276Z,101625.27
2018-05-11T18:11:03.863Z,101633.75
2018-05-11T18:13:31.635Z,101627.47
2018-05-11T18:15:59.280Z,101632.43
2018-05-11T18:18:26.911Z,101630.22
2018-05-11T18:20:54.520Z,101638.03
2018-05-11T18:23:22.118Z,101634.28
2018-05-11T18:25:49.676Z,101629.13
2018-05-11T18:28:17.279Z,101636.73
2018-05-11T18:30:44.863Z,101631.47
2018-05-11T18:33:12.791Z,101631.95
2018-05-11T18:35:40.618Z,101630.20
2018-05-11T18:38:08.416Z,101626.37
2018-05-11T18:40:36.011Z,101621.29
2018-05-11T18:43:04.068Z,101619.77
2018-05-11T18:45:31.637Z,101622.00
2018-05-11T18:47:59.204Z,101614.62
2018-05-11T18:50:27.038Z,101611.12
2018-05-11T18:52:54.704Z,101612.61
2018-05-11T18:55:22.276Z,101611.42
2018-05-11T18:57:49.856Z,101616.64
2018-05-11T19:00:17.791Z,101617.28
2018-05-11T19:02:45.361Z,101618.25
2018-05-11T19:05:12.936Z,101617.52
2018-05-11T19:07:40.535Z,101618.38
2018-05-11T19:10:08.097Z,101615.12
2018-05-11T19:12:35.717Z,101623.84
2018-05-11T19:15:03.551Z,101624.20
2018-05-11T19:17:31.179Z,101620.95
2018-05-11T19:19:58.945Z,101626.73
2018-05-11T19:22:27.430Z,101622.96
2018-05-11T19:24:55.137Z,101624.80
2018-05-11T19:27:22.702Z,101627.84
2018-05-11T19:29:50.487Z,101624.27
2018-05-11T19:32:18.080Z,101625.55
2018-05-11T19:34:45.724Z,101628.01
2018-05-11T19:37:13.785Z,101627.26
2018-05-11T19:39:41.353Z,101624.80
2018-05-11T19:42:08.913Z,101631.11
2018-05-11T19:44:36.512Z,101635.80
2018-05-11T19:47:04.321Z,101632.68
2018-05-11T19:49:32.019Z,101635.20
2018-05-11T19:51:59.587Z,101630.06
2018-05-11T19:54:27.385Z,101629.32
2018-05-11T19:56:54.995Z,101623.94
2018-05-11T19:59:22.827Z,101626.11
2018-05-11T20:01:50.721Z,101622.43
2018-05-11T20:04:18.315Z,101625.38
2018-05-11T20:06:46.029Z,101621.81
2018-05-11T20:09:13.600Z,101625.75
2018-05-11T20:11:41.439Z,101629.76
2018-05-11T20:14:09.086Z,101637.08
2018-05-11T20:16:36.900Z,101632.20
2018-05-11T20:19:04.750Z,101640.78
2018-05-11T20:21:33.148Z,101646.77
2018-05-11T20:24:00.732Z,101645.77
2018-05-11T20:26:28.360Z,101638.41
2018-05-11T20:28:55.959Z,101640.47
2018-05-11T20:31:23.746Z,101645.70
2018-05-11T20:33:51.349Z,101647.89
2018-05-11T20:36:18.993Z,101650.30
2018-05-11T20:38:46.735Z,101647.92
2018-05-11T20:41:14.287Z,101644.16
2018-05-11T20:43:42.000Z,101647.64
2018-05-11T20:46:10.291Z,101649.72
2018-05-11T20:48:37.857Z,101647.80
2018-05-11T20:51:05.504Z,101654.82
2018-05-11T20:53:33.159Z,101656.94
2018-05-11T20:56:00.716Z,101655.96
2018-05-11T20:58:28.331Z,101663.30
2018-05-11T21:00:55.886Z,101659.36
2018-05-11T21:03:23.466Z,101663.09
2018-05-11T21:05:51.325Z,101660.91
2018-05-11T21:08:18.944Z,101662.61
2018-05-11T21:10:46.667Z,101669.48
2018-05-11T21:13:14.307Z,101667.13
2018-05-11T21:15:42.213Z,101667.71
2018-05-11T21:18:10.119Z,101671.90
2018-05-11T21:20:37.831Z,101667.71
2018-05-11T21:23:05.428Z,101674.09
2018-05-11T21:25:33.005Z,101673.35
2018-05-11T21:28:00.777Z,101677.54
2018-05-11T21:30:28.344Z,101671.77
2018-05-11T21:32:56.567Z,101666.38
2018-05-11T21:35:24.220Z,101666.95
2018-05-11T21:37:52.344Z,101659.86
2018-05-11T21:40:20.020Z,101659.64
2018-05-11T21:42:47.665Z,101664.05
2018-05-11T21:45:15.253Z,101657.61
2018-05-11T21:47:42.969Z,101656.49
2018-05-11T21:50:10.790Z,101658.15
2018-05-11T21:52:38.354Z,101658.31
2018-05-11T21:55:05.943Z,101658.01
2018-05-11T21:57:33.718Z,101663.72
2018-05-11T22:00:01.427Z,101675.86
2018-05-11T22:02:28.992Z,101656.89
2018-05-11T22:04:56.570Z,101655.98
2018-05-11T22:07:24.182Z,101646.66
2018-05-11T22:09:51.804Z,101643.92
2018-05-11T22:12:19.574Z,101649.80
2018-05-11T22:14:47.236Z,101651.23
2018-05-11T22:17:14.896Z,101645.13
2018-05-11T22:19:42.583Z,101646.75
2018-05-11T22:22:10.166Z,101644.72
2018-05-11T22:24:37.731Z,101645.86
2018-05-11T22:27:06.281Z,101643.36
2018-05-11T22:29:34.115Z,101637.48
2018-05-11T22:32:02.437Z,101638.77
2018-05-11T22:34:30.000Z,101634.11
2018-05-11T22:36:57.560Z,101636.11
2018-05-11T22:39:25.204Z,101636.77
2018-05-11T22:41:52.800Z,101632.33
2018-05-11T22:44:20.435Z,101635.48
2018-05-11T22:46:48.204Z,101630.81
2018-05-11T22:49:16.034Z,101630.72
2018-05-11T22:51:43.708Z,101628.00
2018-05-11T22:54:11.636Z,101629.53
2018-05-11T22:56:39.654Z,101628.73
2018-05-11T22:59:07.223Z,101625.36
2018-05-11T23:01:34.790Z,101624.29
2018-05-11T23:04:02.608Z,101624.15
2018-05-11T23:06:30.173Z,101621.33
2018-05-11T23:08:57.778Z,101617.23
2018-05-11T23:11:25.371Z,101625.66
2018-05-11T23:13:52.933Z,101626.06
2018-05-11T23:16:20.604Z,101626.16
2018-05-11T23:18:48.210Z,101633.70
2018-05-11T23:21:15.970Z,101633.41
2018-05-11T23:23:43.545Z,101630.58
2018-05-11T23:26:11.116Z,101639.50
2018-05-11T23:28:38.726Z,101629.84
2018-05-11T23:31:06.297Z,101627.52
2018-05-11T23:33:33.923Z,101620.77
2018-05-11T23:36:01.505Z,101624.05
2018-05-11T23:38:29.333Z,101622.85
2018-05-11T23:40:57.001Z,101621.32
2018-05-11T23:43:24.643Z,101617.16
2018-05-11T23:45:52.254Z,101607.59
2018-05-11T23:48:20.053Z,101612.07
2018-05-11T23:50:48.218Z,101606.44
2018-05-11T23:53:16.056Z,101595.67
2018-05-11T23:55:43.672Z,101596.95
2018-05-11T23:58:11.321Z,101605.40
